BAW4P EHAM-EGKK
Flight info
| Callsign | BAW4P |
|---|---|
| Flight time | 0h 49m |
| Altitude | 24000 |
| Route | IDRID L980 ABNED Z344 AMRIV Q63 ARREK Y4 TEBRA |
| Aircraft | A35K/H-SDE2E3GHIJ3J4J5LM1ORWXY/LB1D1 |
Departure
| Time | 2026-05-06 19:22 |
|---|---|
| Airport | Amsterdam Airport Schiphol (EHAM) |
Arrival
| Time | 2026-05-06 20:12 |
|---|---|
| Airport | London Gatwick Airport (EGKK) |
| Time | Latitude | Longitude | Altitude | Speed | Heading |
|---|---|---|---|---|---|
| 2026-05-06 18:58 | 52.31285 | 4.75581 | 5 ft | 0 kts | 86° |
| 2026-05-06 19:10 | 52.31284 | 4.75571 | 5 ft | 4 kts | 88° |
| 2026-05-06 19:10 | 52.31284 | 4.75527 | 6 ft | 4 kts | 91° |
| 2026-05-06 19:10 | 52.31284 | 4.75483 | 6 ft | 4 kts | 78° |
| 2026-05-06 19:10 | 52.31275 | 4.75457 | 6 ft | 3 kts | 4° |
| 2026-05-06 19:11 | 52.31250 | 4.75456 | 7 ft | 4 kts | 355° |
| 2026-05-06 19:11 | 52.31235 | 4.75458 | 8 ft | 0 kts | 356° |
| 2026-05-06 19:13 | 52.31238 | 4.75458 | 8 ft | 4 kts | 357° |
| 2026-05-06 19:13 | 52.31277 | 4.75454 | 6 ft | 7 kts | 356° |
| 2026-05-06 19:14 | 52.31339 | 4.75448 | 5 ft | 10 kts | 356° |
| 2026-05-06 19:14 | 52.31418 | 4.75441 | 5 ft | 12 kts | 356° |
| 2026-05-06 19:14 | 52.31494 | 4.75402 | 5 ft | 11 kts | 310° |
| 2026-05-06 19:14 | 52.31504 | 4.75267 | 5 ft | 14 kts | 268° |
| 2026-05-06 19:15 | 52.31499 | 4.75093 | 5 ft | 16 kts | 266° |
| 2026-05-06 19:15 | 52.31492 | 4.74891 | 5 ft | 19 kts | 267° |
| 2026-05-06 19:15 | 52.31485 | 4.74655 | 5 ft | 22 kts | 267° |
| 2026-05-06 19:15 | 52.31478 | 4.74471 | 5 ft | 12 kts | 266° |
| 2026-05-06 19:16 | 52.31473 | 4.74317 | 5 ft | 15 kts | 266° |
| 2026-05-06 19:16 | 52.31426 | 4.74166 | 5 ft | 16 kts | 214° |
| 2026-05-06 19:16 | 52.31311 | 4.74132 | 5 ft | 18 kts | 183° |
| 2026-05-06 19:16 | 52.31171 | 4.74118 | 5 ft | 22 kts | 183° |
| 2026-05-06 19:17 | 52.31015 | 4.74105 | 5 ft | 23 kts | 183° |
| 2026-05-06 19:17 | 52.30844 | 4.74090 | 5 ft | 26 kts | 183° |
| 2026-05-06 19:17 | 52.30693 | 4.74077 | 5 ft | 20 kts | 183° |
| 2026-05-06 19:17 | 52.30544 | 4.74062 | 5 ft | 19 kts | 184° |
| 2026-05-06 19:18 | 52.30449 | 4.74046 | 5 ft | 6 kts | 201° |
| 2026-05-06 19:18 | 52.30441 | 4.74038 | 5 ft | 0 kts | 213° |
| 2026-05-06 19:19 | 52.30432 | 4.74026 | 5 ft | 3 kts | 221° |
| 2026-05-06 19:19 | 52.30427 | 4.74016 | 5 ft | 0 kts | 229° |
| 2026-05-06 19:20 | 52.30426 | 4.74014 | 5 ft | 1 kts | 230° |
| 2026-05-06 19:20 | 52.30417 | 4.73981 | 5 ft | 7 kts | 251° |
| 2026-05-06 19:20 | 52.30413 | 4.73846 | 4 ft | 13 kts | 274° |
| 2026-05-06 19:20 | 52.30455 | 4.73767 | 3 ft | 10 kts | 350° |
| 2026-05-06 19:21 | 52.30472 | 4.73767 | 3 ft | 0 kts | 1° |
| 2026-05-06 19:21 | 52.30473 | 4.73767 | 3 ft | 1 kts | 1° |
| 2026-05-06 19:22 | 52.30626 | 4.73779 | 3 ft | 59 kts | 3° |
| 2026-05-06 19:22 | 52.31288 | 4.73837 | 4 ft | 130 kts | 3° |
| 2026-05-06 19:22 | 52.32336 | 4.73917 | 205 ft | 172 kts | 3° |
| 2026-05-06 19:22 | 52.33589 | 4.73984 | 796 ft | 186 kts | 4° |
| 2026-05-06 19:23 | 52.34885 | 4.74068 | 1674 ft | 193 kts | 6° |
| 2026-05-06 19:23 | 52.36312 | 4.74175 | 2140 ft | 221 kts | 6° |
| 2026-05-06 19:23 | 52.37926 | 4.74296 | 2728 ft | 241 kts | 5° |
| 2026-05-06 19:23 | 52.39618 | 4.74417 | 3654 ft | 244 kts | 5° |
| 2026-05-06 19:24 | 52.41316 | 4.74537 | 4676 ft | 245 kts | 4° |
| 2026-05-06 19:24 | 52.43018 | 4.74659 | 5437 ft | 253 kts | 4° |
| 2026-05-06 19:24 | 52.44219 | 4.74743 | 5754 ft | 257 kts | 4° |
| 2026-05-06 19:24 | 52.46008 | 4.74869 | 5933 ft | 257 kts | 4° |
| 2026-05-06 19:25 | 52.47795 | 4.74994 | 5945 ft | 257 kts | 5° |
| 2026-05-06 19:25 | 52.49583 | 4.75119 | 6002 ft | 258 kts | 5° |
| 2026-05-06 19:25 | 52.51382 | 4.74974 | 6417 ft | 266 kts | 352° |
| 2026-05-06 19:25 | 52.53131 | 4.73891 | 7331 ft | 272 kts | 330° |
| 2026-05-06 19:26 | 52.54475 | 4.71717 | 8440 ft | 276 kts | 303° |
| 2026-05-06 19:26 | 52.55041 | 4.68720 | 9525 ft | 280 kts | 272° |
| 2026-05-06 19:26 | 52.54654 | 4.65583 | 10473 ft | 288 kts | 249° |
| 2026-05-06 19:26 | 52.53677 | 4.62557 | 10914 ft | 313 kts | 237° |
| 2026-05-06 19:27 | 52.52331 | 4.59574 | 11332 ft | 337 kts | 232° |
| 2026-05-06 19:27 | 52.50792 | 4.56575 | 12063 ft | 348 kts | 231° |
| 2026-05-06 19:27 | 52.49209 | 4.53551 | 13019 ft | 351 kts | 231° |
| 2026-05-06 19:27 | 52.47631 | 4.50459 | 13943 ft | 356 kts | 232° |
| 2026-05-06 19:28 | 52.46055 | 4.47263 | 14749 ft | 361 kts | 233° |
| 2026-05-06 19:28 | 52.44504 | 4.44026 | 15668 ft | 362 kts | 234° |
| 2026-05-06 19:28 | 52.42964 | 4.40757 | 16539 ft | 365 kts | 234° |
| 2026-05-06 19:28 | 52.41407 | 4.37420 | 17316 ft | 371 kts | 234° |
| 2026-05-06 19:29 | 52.39830 | 4.34036 | 18212 ft | 375 kts | 234° |
| 2026-05-06 19:29 | 52.38237 | 4.30622 | 19045 ft | 378 kts | 234° |
| 2026-05-06 19:29 | 52.36655 | 4.27243 | 19826 ft | 382 kts | 234° |
| 2026-05-06 19:29 | 52.35006 | 4.23728 | 20561 ft | 387 kts | 233° |
| 2026-05-06 19:30 | 52.33367 | 4.20246 | 21380 ft | 390 kts | 233° |
| 2026-05-06 19:30 | 52.31697 | 4.16705 | 22197 ft | 393 kts | 233° |
| 2026-05-06 19:30 | 52.30033 | 4.13183 | 22958 ft | 398 kts | 233° |
| 2026-05-06 19:30 | 52.28332 | 4.09586 | 23614 ft | 404 kts | 233° |
| 2026-05-06 19:31 | 52.26614 | 4.05961 | 23889 ft | 404 kts | 233° |
| 2026-05-06 19:31 | 52.24911 | 4.02373 | 23972 ft | 395 kts | 233° |
| 2026-05-06 19:31 | 52.21573 | 3.95354 | 23950 ft | 390 kts | 233° |
| 2026-05-06 19:32 | 52.19908 | 3.91858 | 23967 ft | 391 kts | 233° |
| 2026-05-06 19:32 | 52.18245 | 3.88370 | 23966 ft | 390 kts | 233° |
| 2026-05-06 19:32 | 52.16578 | 3.84878 | 23962 ft | 390 kts | 233° |
| 2026-05-06 19:32 | 52.14916 | 3.81403 | 23964 ft | 389 kts | 233° |
| 2026-05-06 19:33 | 52.13254 | 3.77931 | 23962 ft | 389 kts | 233° |
| 2026-05-06 19:33 | 52.11587 | 3.74454 | 23960 ft | 390 kts | 233° |
| 2026-05-06 19:33 | 52.09921 | 3.70985 | 23961 ft | 389 kts | 233° |
| 2026-05-06 19:33 | 52.08261 | 3.67531 | 23966 ft | 388 kts | 233° |
| 2026-05-06 19:34 | 52.06593 | 3.64065 | 23966 ft | 389 kts | 233° |
| 2026-05-06 19:34 | 52.04924 | 3.60603 | 23964 ft | 389 kts | 233° |
| 2026-05-06 19:34 | 52.03258 | 3.57152 | 23958 ft | 388 kts | 233° |
| 2026-05-06 19:34 | 52.01595 | 3.53713 | 23960 ft | 388 kts | 233° |
| 2026-05-06 19:35 | 51.99921 | 3.50252 | 23959 ft | 389 kts | 233° |
| 2026-05-06 19:35 | 51.98263 | 3.46785 | 23954 ft | 389 kts | 233° |
| 2026-05-06 19:35 | 51.96651 | 3.43257 | 23960 ft | 390 kts | 234° |
| 2026-05-06 19:35 | 51.95059 | 3.39694 | 23964 ft | 391 kts | 235° |
| 2026-05-06 19:36 | 51.93475 | 3.36132 | 23959 ft | 390 kts | 235° |
| 2026-05-06 19:36 | 51.91888 | 3.32576 | 23960 ft | 389 kts | 235° |
| 2026-05-06 19:36 | 51.90298 | 3.29034 | 23964 ft | 389 kts | 234° |
| 2026-05-06 19:36 | 51.88698 | 3.25493 | 23963 ft | 390 kts | 234° |
| 2026-05-06 19:37 | 51.87094 | 3.21960 | 23964 ft | 388 kts | 234° |
| 2026-05-06 19:37 | 51.85518 | 3.18412 | 23958 ft | 389 kts | 238° |
| 2026-05-06 19:37 | 51.84154 | 3.14630 | 23962 ft | 390 kts | 242° |
| 2026-05-06 19:37 | 51.82870 | 3.10776 | 23965 ft | 389 kts | 243° |
| 2026-05-06 19:38 | 51.81626 | 3.06897 | 23971 ft | 388 kts | 243° |
| 2026-05-06 19:38 | 51.80402 | 3.03011 | 23969 ft | 389 kts | 243° |
| 2026-05-06 19:38 | 51.79180 | 2.99108 | 23967 ft | 389 kts | 243° |
| 2026-05-06 19:38 | 51.78117 | 2.95104 | 23968 ft | 387 kts | 250° |
| 2026-05-06 19:39 | 51.77202 | 2.91005 | 23964 ft | 387 kts | 251° |
| 2026-05-06 19:39 | 51.76312 | 2.86892 | 23973 ft | 390 kts | 251° |
| 2026-05-06 19:39 | 51.75421 | 2.82731 | 23971 ft | 392 kts | 251° |
| 2026-05-06 19:39 | 51.74536 | 2.78584 | 23970 ft | 391 kts | 251° |
| 2026-05-06 19:40 | 51.73660 | 2.74473 | 23973 ft | 392 kts | 251° |
| 2026-05-06 19:40 | 51.72773 | 2.70315 | 23980 ft | 393 kts | 251° |
| 2026-05-06 19:40 | 51.71883 | 2.66148 | 23979 ft | 392 kts | 251° |
| 2026-05-06 19:40 | 51.70994 | 2.61990 | 23978 ft | 392 kts | 251° |
| 2026-05-06 19:41 | 51.70105 | 2.57840 | 23976 ft | 392 kts | 251° |
| 2026-05-06 19:41 | 51.69213 | 2.53681 | 23978 ft | 393 kts | 251° |
| 2026-05-06 19:41 | 51.68321 | 2.49531 | 23981 ft | 392 kts | 251° |
| 2026-05-06 19:41 | 51.67425 | 2.45373 | 23983 ft | 392 kts | 251° |
| 2026-05-06 19:42 | 51.66529 | 2.41222 | 23983 ft | 392 kts | 251° |
| 2026-05-06 19:42 | 51.65630 | 2.37068 | 23983 ft | 393 kts | 251° |
| 2026-05-06 19:42 | 51.64728 | 2.32906 | 23982 ft | 394 kts | 251° |
| 2026-05-06 19:42 | 51.63824 | 2.28744 | 23988 ft | 394 kts | 251° |
| 2026-05-06 19:43 | 51.62918 | 2.24579 | 23989 ft | 394 kts | 251° |
| 2026-05-06 19:43 | 51.62011 | 2.20421 | 23988 ft | 394 kts | 251° |
| 2026-05-06 19:43 | 51.61103 | 2.16264 | 23987 ft | 394 kts | 251° |
| 2026-05-06 19:43 | 51.60195 | 2.12120 | 23886 ft | 389 kts | 251° |
| 2026-05-06 19:44 | 51.59296 | 2.08021 | 23148 ft | 391 kts | 251° |
| 2026-05-06 19:44 | 51.58382 | 2.03865 | 22286 ft | 396 kts | 251° |
| 2026-05-06 19:44 | 51.57465 | 1.99704 | 21767 ft | 392 kts | 251° |
| 2026-05-06 19:44 | 51.56559 | 1.95598 | 21278 ft | 388 kts | 251° |
| 2026-05-06 19:45 | 51.55660 | 1.91535 | 20813 ft | 383 kts | 251° |
| 2026-05-06 19:45 | 51.54781 | 1.87568 | 20358 ft | 380 kts | 251° |
| 2026-05-06 19:45 | 51.53887 | 1.83541 | 19867 ft | 376 kts | 251° |
| 2026-05-06 19:45 | 51.53021 | 1.79648 | 19401 ft | 374 kts | 251° |
| 2026-05-06 19:46 | 51.52150 | 1.75739 | 18919 ft | 371 kts | 251° |
| 2026-05-06 19:46 | 51.51281 | 1.71847 | 18443 ft | 369 kts | 251° |
| 2026-05-06 19:46 | 51.50417 | 1.67982 | 17932 ft | 367 kts | 251° |
| 2026-05-06 19:46 | 51.49547 | 1.64100 | 17395 ft | 364 kts | 251° |
| 2026-05-06 19:47 | 51.48704 | 1.60343 | 16928 ft | 361 kts | 251° |
| 2026-05-06 19:47 | 51.47849 | 1.56574 | 16470 ft | 358 kts | 251° |
| 2026-05-06 19:47 | 51.46989 | 1.52845 | 15992 ft | 355 kts | 251° |
| 2026-05-06 19:47 | 51.46132 | 1.49140 | 15493 ft | 354 kts | 251° |
| 2026-05-06 19:48 | 51.45280 | 1.45453 | 15027 ft | 352 kts | 251° |
| 2026-05-06 19:48 | 51.44430 | 1.41795 | 14524 ft | 350 kts | 250° |
| 2026-05-06 19:48 | 51.43349 | 1.38311 | 14052 ft | 350 kts | 237° |
| 2026-05-06 19:48 | 51.41688 | 1.35426 | 13814 ft | 361 kts | 221° |
| 2026-05-06 19:49 | 51.39660 | 1.32921 | 13672 ft | 372 kts | 218° |
| 2026-05-06 19:49 | 51.37572 | 1.30468 | 13412 ft | 373 kts | 218° |
| 2026-05-06 19:49 | 51.35484 | 1.28023 | 13229 ft | 371 kts | 218° |
| 2026-05-06 19:49 | 51.33403 | 1.25578 | 13045 ft | 370 kts | 218° |
| 2026-05-06 19:50 | 51.31333 | 1.23143 | 12842 ft | 369 kts | 218° |
| 2026-05-06 19:50 | 51.29279 | 1.20725 | 12648 ft | 368 kts | 218° |
| 2026-05-06 19:50 | 51.27207 | 1.18287 | 12453 ft | 367 kts | 218° |
| 2026-05-06 19:50 | 51.25155 | 1.15874 | 12269 ft | 366 kts | 218° |
| 2026-05-06 19:51 | 51.23102 | 1.13462 | 12074 ft | 365 kts | 218° |
| 2026-05-06 19:51 | 51.21086 | 1.11096 | 11897 ft | 364 kts | 218° |
| 2026-05-06 19:51 | 51.19019 | 1.08673 | 11697 ft | 364 kts | 218° |
| 2026-05-06 19:51 | 51.16987 | 1.06294 | 11503 ft | 363 kts | 218° |
| 2026-05-06 19:52 | 51.14984 | 1.03950 | 11323 ft | 362 kts | 218° |
| 2026-05-06 19:52 | 51.12956 | 1.01579 | 11136 ft | 361 kts | 217° |
| 2026-05-06 19:52 | 51.10935 | 0.99220 | 10949 ft | 360 kts | 217° |
| 2026-05-06 19:52 | 51.08935 | 0.96889 | 10804 ft | 349 kts | 217° |
| 2026-05-06 19:53 | 51.07023 | 0.94640 | 10621 ft | 334 kts | 219° |
| 2026-05-06 19:53 | 51.05463 | 0.92036 | 10436 ft | 317 kts | 238° |
| 2026-05-06 19:53 | 51.04442 | 0.89027 | 10274 ft | 303 kts | 246° |
| 2026-05-06 19:53 | 51.03568 | 0.86057 | 10118 ft | 291 kts | 246° |
| 2026-05-06 19:54 | 51.02725 | 0.83175 | 9803 ft | 285 kts | 246° |
| 2026-05-06 19:54 | 51.01886 | 0.80329 | 9353 ft | 283 kts | 246° |
| 2026-05-06 19:54 | 51.01049 | 0.77507 | 8914 ft | 282 kts | 246° |
| 2026-05-06 19:54 | 51.00212 | 0.74701 | 8481 ft | 280 kts | 246° |
| 2026-05-06 19:55 | 50.99381 | 0.71919 | 8097 ft | 278 kts | 245° |
| 2026-05-06 19:55 | 50.98554 | 0.69161 | 7976 ft | 277 kts | 246° |
| 2026-05-06 19:55 | 50.97855 | 0.66701 | 7983 ft | 277 kts | 251° |
| 2026-05-06 19:55 | 50.97485 | 0.63733 | 7983 ft | 274 kts | 268° |
| 2026-05-06 19:56 | 50.97436 | 0.60714 | 7977 ft | 274 kts | 270° |
| 2026-05-06 19:56 | 50.97440 | 0.57693 | 7976 ft | 275 kts | 271° |
| 2026-05-06 19:56 | 50.97445 | 0.54667 | 7977 ft | 274 kts | 271° |
| 2026-05-06 19:56 | 50.97458 | 0.51631 | 7982 ft | 275 kts | 271° |
| 2026-05-06 19:57 | 50.97471 | 0.48589 | 7986 ft | 275 kts | 271° |
| 2026-05-06 19:57 | 50.97479 | 0.45555 | 7976 ft | 274 kts | 271° |
| 2026-05-06 19:57 | 50.97489 | 0.42527 | 7988 ft | 274 kts | 271° |
| 2026-05-06 19:57 | 50.97498 | 0.39517 | 7986 ft | 273 kts | 271° |
| 2026-05-06 19:58 | 50.97505 | 0.36508 | 7979 ft | 273 kts | 271° |
| 2026-05-06 19:58 | 50.97510 | 0.33501 | 7976 ft | 270 kts | 271° |
| 2026-05-06 19:58 | 50.97517 | 0.30620 | 7984 ft | 253 kts | 271° |
| 2026-05-06 19:58 | 50.97519 | 0.27914 | 7988 ft | 241 kts | 271° |
| 2026-05-06 19:59 | 50.97523 | 0.25262 | 7986 ft | 240 kts | 271° |
| 2026-05-06 19:59 | 50.97529 | 0.22614 | 7994 ft | 241 kts | 271° |
| 2026-05-06 19:59 | 50.97538 | 0.19949 | 7987 ft | 241 kts | 271° |
| 2026-05-06 19:59 | 50.97541 | 0.17308 | 7985 ft | 240 kts | 271° |
| 2026-05-06 20:00 | 50.97542 | 0.14654 | 7978 ft | 240 kts | 271° |
| 2026-05-06 20:00 | 50.97545 | 0.12039 | 7990 ft | 240 kts | 271° |
| 2026-05-06 20:00 | 50.97544 | 0.09357 | 7991 ft | 239 kts | 271° |
| 2026-05-06 20:00 | 50.97538 | 0.06752 | 8000 ft | 239 kts | 271° |
| 2026-05-06 20:01 | 50.97533 | 0.04078 | 7982 ft | 239 kts | 271° |
| 2026-05-06 20:01 | 50.97532 | 0.01473 | 7672 ft | 236 kts | 271° |
| 2026-05-06 20:01 | 50.97535 | -0.01114 | 7296 ft | 237 kts | 271° |
| 2026-05-06 20:01 | 50.97528 | -0.03728 | 6920 ft | 238 kts | 271° |
| 2026-05-06 20:02 | 50.97517 | -0.06388 | 6554 ft | 237 kts | 271° |
| 2026-05-06 20:02 | 50.97503 | -0.08962 | 6213 ft | 236 kts | 271° |
| 2026-05-06 20:02 | 50.97492 | -0.11553 | 6022 ft | 235 kts | 271° |
| 2026-05-06 20:02 | 50.97474 | -0.14148 | 5973 ft | 235 kts | 271° |
| 2026-05-06 20:03 | 50.97649 | -0.16704 | 5979 ft | 233 kts | 288° |
| 2026-05-06 20:03 | 50.98226 | -0.19075 | 5728 ft | 230 kts | 295° |
| 2026-05-06 20:03 | 50.98888 | -0.21376 | 5333 ft | 231 kts | 296° |
| 2026-05-06 20:03 | 50.99568 | -0.23691 | 4969 ft | 231 kts | 296° |
| 2026-05-06 20:04 | 51.00248 | -0.25996 | 4607 ft | 230 kts | 296° |
| 2026-05-06 20:04 | 51.00922 | -0.28291 | 4249 ft | 228 kts | 296° |
| 2026-05-06 20:04 | 51.01581 | -0.30569 | 4024 ft | 227 kts | 296° |
| 2026-05-06 20:04 | 51.02239 | -0.32856 | 3999 ft | 228 kts | 296° |
| 2026-05-06 20:05 | 51.02903 | -0.35163 | 3686 ft | 232 kts | 296° |
| 2026-05-06 20:05 | 51.03563 | -0.37474 | 3429 ft | 227 kts | 296° |
| 2026-05-06 20:05 | 51.04194 | -0.39706 | 3315 ft | 215 kts | 296° |
| 2026-05-06 20:05 | 51.04779 | -0.41798 | 3249 ft | 200 kts | 296° |
| 2026-05-06 20:06 | 51.05326 | -0.43762 | 3105 ft | 189 kts | 296° |
| 2026-05-06 20:06 | 51.05883 | -0.45602 | 3006 ft | 183 kts | 304° |
| 2026-05-06 20:06 | 51.06862 | -0.46796 | 2996 ft | 179 kts | 343° |
| 2026-05-06 20:06 | 51.08084 | -0.46718 | 3005 ft | 179 kts | 20° |
| 2026-05-06 20:07 | 51.09193 | -0.45834 | 2997 ft | 179 kts | 30° |
| 2026-05-06 20:07 | 51.10258 | -0.44809 | 2995 ft | 179 kts | 31° |
| 2026-05-06 20:07 | 51.11227 | -0.43569 | 3001 ft | 181 kts | 49° |
| 2026-05-06 20:07 | 51.11729 | -0.41843 | 2969 ft | 167 kts | 76° |
| 2026-05-06 20:08 | 51.11910 | -0.40055 | 2766 ft | 161 kts | 78° |
| 2026-05-06 20:08 | 51.12138 | -0.38317 | 2523 ft | 160 kts | 72° |
| 2026-05-06 20:08 | 51.12395 | -0.36590 | 2293 ft | 161 kts | 75° |
| 2026-05-06 20:08 | 51.12625 | -0.34879 | 2072 ft | 160 kts | 75° |
| 2026-05-06 20:09 | 51.12865 | -0.33139 | 1849 ft | 157 kts | 75° |
| 2026-05-06 20:09 | 51.13088 | -0.31524 | 1641 ft | 146 kts | 74° |
| 2026-05-06 20:09 | 51.13304 | -0.29969 | 1458 ft | 140 kts | 75° |
| 2026-05-06 20:09 | 51.13509 | -0.28480 | 1252 ft | 140 kts | 75° |
| 2026-05-06 20:10 | 51.13650 | -0.27458 | 1118 ft | 140 kts | 75° |
| 2026-05-06 20:10 | 51.13859 | -0.25946 | 915 ft | 140 kts | 76° |
| 2026-05-06 20:10 | 51.14066 | -0.24445 | 728 ft | 138 kts | 77° |
| 2026-05-06 20:10 | 51.14272 | -0.22949 | 535 ft | 138 kts | 77° |
| 2026-05-06 20:11 | 51.14477 | -0.21462 | 346 ft | 137 kts | 77° |
| 2026-05-06 20:11 | 51.14684 | -0.19976 | 227 ft | 137 kts | 77° |
| 2026-05-06 20:11 | 51.14863 | -0.18678 | 212 ft | 97 kts | 77° |
| 2026-05-06 20:11 | 51.14972 | -0.17895 | 220 ft | 50 kts | 77° |
| 2026-05-06 20:12 | 51.15046 | -0.17397 | 222 ft | 40 kts | 69° |
| 2026-05-06 20:12 | 51.15105 | -0.17244 | 221 ft | 9 kts | 43° |
| 2026-05-06 20:12 | 51.15179 | -0.17230 | 221 ft | 1 kts | 331° |
| 2026-05-06 20:12 | 51.15191 | -0.17245 | 221 ft | 4 kts | 319° |
| 2026-05-06 20:13 | 51.15224 | -0.17288 | 221 ft | 6 kts | 323° |
| 2026-05-06 20:13 | 51.15227 | -0.17291 | 220 ft | 0 kts | 323° |
| 2026-05-06 20:13 | 51.15234 | -0.17300 | 221 ft | 4 kts | 323° |
| 2026-05-06 20:14 | 51.15269 | -0.17333 | 219 ft | 8 kts | 333° |
| 2026-05-06 20:14 | 51.15333 | -0.17362 | 221 ft | 11 kts | 347° |
| 2026-05-06 20:14 | 51.15421 | -0.17395 | 215 ft | 15 kts | 347° |
| 2026-05-06 20:14 | 51.15531 | -0.17434 | 218 ft | 16 kts | 352° |
| 2026-05-06 20:15 | 51.15597 | -0.17338 | 217 ft | 15 kts | 74° |
| 2026-05-06 20:15 | 51.15624 | -0.17176 | 216 ft | 16 kts | 75° |
| 2026-05-06 20:15 | 51.15667 | -0.17046 | 216 ft | 7 kts | 18° |
| 2026-05-06 20:15 | 51.15727 | -0.17054 | 215 ft | 11 kts | 352° |
| 2026-05-06 20:16 | 51.15802 | -0.17065 | 213 ft | 9 kts | 20° |
| 2026-05-06 20:16 | 51.15821 | -0.16982 | 214 ft | 6 kts | 82° |
| 2026-05-06 20:16 | 51.15822 | -0.16962 | 214 ft | 3 kts | 86° |
| 2026-05-06 20:16 | 51.15823 | -0.16948 | 212 ft | 0 kts | 87° |